Time,TemperatureF,DewpointF,PressureIn,WindDirection,WindDirectionDegrees,WindSpeedMPH,WindSpeedGustMPH,Humidity,HourlyPrecipIn,Conditions,Clouds,dailyrainin,SolarRadiationWatts/m^2,SoftwareType,DateUTC
2013-08-09 00:22:00,69.0,39.0,-100.00,North,4,6.0,10.0,34,0.00,,,0.00,0.000000,,2013-08-09 07:22:00,
2013-08-09 00:33:00,69.0,39.0,-100.00,North,4,6.0,10.0,34,0.00,,,0.00,0.000000,,2013-08-09 07:33:00,
2013-08-09 00:43:00,69.0,39.0,-100.00,North,4,6.0,10.0,34,0.00,,,0.00,0.000000,,2013-08-09 07:43:00,
2013-08-09 00:52:00,69.0,39.0,-100.00,North,4,6.0,10.0,34,0.00,,,0.00,0.000000,,2013-08-09 07:52:00,
2013-08-09 01:43:00,66.0,35.0,-100.00,NNE,14,9.0,11.0,32,0.00,,,0.00,0.000000,,2013-08-09 08:43:00,
2013-08-09 01:53:00,66.0,35.0,-100.00,NNE,14,9.0,11.0,32,0.00,,,0.00,0.000000,,2013-08-09 08:53:00,
2013-08-09 02:22:00,67.0,37.0,-100.00,NNE,15,8.0,14.0,33,0.00,,,0.00,0.000000,,2013-08-09 09:22:00,
2013-08-09 02:32:00,67.0,37.0,-100.00,NNE,15,8.0,14.0,33,0.00,,,0.00,0.000000,,2013-08-09 09:32:00,
2013-08-09 02:43:00,67.0,37.0,-100.00,NNE,15,8.0,14.0,33,0.00,,,0.00,0.000000,,2013-08-09 09:43:00,
2013-08-09 02:52:00,67.0,37.0,-100.00,NNE,15,8.0,14.0,33,0.00,,,0.00,0.000000,,2013-08-09 09:52:00,
2013-08-09 03:22:00,65.0,37.0,-100.00,North,9,11.0,14.0,35,0.00,,,0.00,0.000000,,2013-08-09 10:22:00,
2013-08-09 03:32:00,65.0,37.0,-100.00,North,9,11.0,14.0,35,0.00,,,0.00,0.000000,,2013-08-09 10:32:00,
2013-08-09 03:43:00,65.0,37.0,-100.00,North,9,11.0,14.0,35,0.00,,,0.00,0.000000,,2013-08-09 10:43:00,
2013-08-09 03:53:00,65.0,37.0,-100.00,North,9,11.0,14.0,35,0.00,,,0.00,0.000000,,2013-08-09 10:53:00,
2013-08-09 04:42:00,64.0,35.0,-100.00,NNE,16,12.0,16.0,34,0.00,,,0.00,0.000000,,2013-08-09 11:42:00,
2013-08-09 04:53:00,64.0,35.0,-100.00,NNE,16,12.0,16.0,34,0.00,,,0.00,0.000000,,2013-08-09 11:53:00,
2013-08-09 05:43:00,61.0,35.0,-100.00,NNE,17,10.0,15.0,37,0.00,,,0.00,0.000000,,2013-08-09 12:43:00,
2013-08-09 05:52:00,61.0,35.0,-100.00,NNE,17,10.0,15.0,37,0.00,,,0.00,0.000000,,2013-08-09 12:52:00,
2013-08-09 06:23:00,62.0,35.0,-100.00,NNE,14,11.0,16.0,36,0.00,,,0.00,0.000000,,2013-08-09 13:23:00,
2013-08-09 06:32:00,62.0,35.0,-100.00,NNE,14,11.0,16.0,36,0.00,,,0.00,0.000000,,2013-08-09 13:32:00,
2013-08-09 06:43:00,62.0,35.0,-100.00,NNE,14,11.0,16.0,36,0.00,,,0.00,0.000000,,2013-08-09 13:43:00,
2013-08-09 06:52:00,62.0,35.0,-100.00,NNE,14,11.0,16.0,36,0.00,,,0.00,0.000000,,2013-08-09 13:52:00,
2013-08-09 07:53:00,60.0,33.0,-100.00,North,6,11.0,17.0,36,0.00,,,0.00,9.000000,,2013-08-09 14:53:00,
2013-08-09 08:44:00,63.0,33.0,-100.00,NNE,19,6.0,14.0,32,0.00,,,0.00,78.000000,,2013-08-09 15:44:00,
2013-08-09 08:53:00,63.0,33.0,-100.00,NNE,19,6.0,14.0,32,0.00,,,0.00,78.000000,,2013-08-09 15:53:00,
2013-08-09 09:43:00,71.0,34.0,-100.00,SSE,166,2.0,9.0,26,0.00,,,0.00,443.000000,,2013-08-09 16:43:00,
2013-08-09 09:53:00,71.0,34.0,-100.00,SSE,166,2.0,9.0,26,0.00,,,0.00,443.000000,,2013-08-09 16:53:00,
2013-08-09 10:22:00,72.0,35.0,-100.00,SSE,148,6.0,10.0,26,0.00,,,0.00,647.000000,,2013-08-09 17:22:00,
2013-08-09 10:33:00,72.0,35.0,-100.00,SSE,148,6.0,10.0,26,0.00,,,0.00,647.000000,,2013-08-09 17:33:00,
2013-08-09 10:43:00,72.0,35.0,-100.00,SSE,148,6.0,10.0,26,0.00,,,0.00,647.000000,,2013-08-09 17:43:00,
2013-08-09 10:52:00,72.0,35.0,-100.00,SSE,148,6.0,10.0,26,0.00,,,0.00,647.000000,,2013-08-09 17:52:00,
2013-08-09 11:22:00,77.0,41.0,-100.00,South,185,10.0,14.0,28,0.00,,,0.00,854.000000,,2013-08-09 18:22:00,
2013-08-09 11:32:00,77.0,41.0,-100.00,South,185,10.0,14.0,28,0.00,,,0.00,854.000000,,2013-08-09 18:32:00,
2013-08-09 11:43:00,77.0,41.0,-100.00,South,185,10.0,14.0,28,0.00,,,0.00,854.000000,,2013-08-09 18:43:00,
2013-08-09 11:52:00,77.0,41.0,-100.00,South,185,10.0,14.0,28,0.00,,,0.00,854.000000,,2013-08-09 18:52:00,
2013-08-09 12:22:00,79.0,37.0,-100.00,South,185,12.0,18.0,22,0.00,,,0.00,993.000000,,2013-08-09 19:22:00,
2013-08-09 12:32:00,79.0,37.0,-100.00,South,185,12.0,18.0,22,0.00,,,0.00,993.000000,,2013-08-09 19:32:00,
2013-08-09 12:43:00,79.0,37.0,-100.00,South,185,12.0,18.0,22,0.00,,,0.00,993.000000,,2013-08-09 19:43:00,
2013-08-09 12:52:00,79.0,37.0,-100.00,South,185,12.0,18.0,22,0.00,,,0.00,993.000000,,2013-08-09 19:52:00,
2013-08-09 13:22:00,83.0,41.0,-100.00,SSE,156,13.0,20.0,23,0.00,,,0.00,1068.000000,,2013-08-09 20:22:00,
2013-08-09 13:32:00,83.0,41.0,-100.00,SSE,156,13.0,20.0,23,0.00,,,0.00,1068.000000,,2013-08-09 20:32:00,
2013-08-09 13:43:00,83.0,41.0,-100.00,SSE,156,13.0,20.0,23,0.00,,,0.00,1068.000000,,2013-08-09 20:43:00,
2013-08-09 13:52:00,83.0,41.0,-100.00,SSE,156,13.0,20.0,23,0.00,,,0.00,1068.000000,,2013-08-09 20:52:00,
2013-08-09 14:22:00,85.0,35.0,-100.00,SSW,193,15.0,24.0,17,0.00,,,0.00,1069.000000,,2013-08-09 21:22:00,
2013-08-09 14:33:00,85.0,35.0,-100.00,SSW,193,15.0,24.0,17,0.00,,,0.00,1069.000000,,2013-08-09 21:33:00,
2013-08-09 14:43:00,85.0,35.0,-100.00,SSW,193,15.0,24.0,17,0.00,,,0.00,1069.000000,,2013-08-09 21:43:00,
2013-08-09 14:52:00,85.0,35.0,-100.00,SSW,193,15.0,24.0,17,0.00,,,0.00,1069.000000,,2013-08-09 21:52:00,
2013-08-09 15:22:00,87.0,40.0,-100.00,South,183,20.0,26.0,19,0.00,,,0.00,1006.000000,,2013-08-09 22:22:00,
2013-08-09 15:32:00,87.0,40.0,-100.00,South,183,20.0,26.0,19,0.00,,,0.00,1006.000000,,2013-08-09 22:32:00,
2013-08-09 15:42:00,87.0,40.0,-100.00,South,183,20.0,26.0,19,0.00,,,0.00,1006.000000,,2013-08-09 22:42:00,
2013-08-09 15:52:00,87.0,40.0,-100.00,South,183,20.0,26.0,19,0.00,,,0.00,1006.000000,,2013-08-09 22:52:00,
2013-08-09 16:43:00,87.0,35.0,-100.00,SW,230,11.0,31.0,16,0.00,,,0.00,868.000000,,2013-08-09 23:43:00,
2013-08-09 16:52:00,87.0,35.0,-100.00,SW,230,11.0,31.0,16,0.00,,,0.00,868.000000,,2013-08-09 23:52:00,
2013-08-09 17:22:00,88.0,33.0,-100.00,SSW,211,7.0,19.0,14,0.00,,,0.00,701.000000,,2013-08-10 00:22:00,
2013-08-09 17:33:00,88.0,33.0,-100.00,SSW,211,7.0,19.0,14,0.00,,,0.00,701.000000,,2013-08-10 00:33:00,
2013-08-09 17:43:00,88.0,33.0,-100.00,SSW,211,7.0,19.0,14,0.00,,,0.00,701.000000,,2013-08-10 00:43:00,
2013-08-09 17:52:00,88.0,33.0,-100.00,SSW,211,7.0,19.0,14,0.00,,,0.00,701.000000,,2013-08-10 00:52:00,
2013-08-09 18:21:00,85.0,34.0,-100.00,NW,321,20.0,25.0,16,0.00,,,0.00,487.000000,,2013-08-10 01:21:00,
2013-08-09 18:32:00,85.0,34.0,-100.00,NW,321,20.0,25.0,16,0.00,,,0.00,487.000000,,2013-08-10 01:32:00,
2013-08-09 18:42:00,85.0,34.0,-100.00,NW,321,20.0,25.0,16,0.00,,,0.00,487.000000,,2013-08-10 01:42:00,
2013-08-09 18:52:00,85.0,34.0,-100.00,NW,321,20.0,25.0,16,0.00,,,0.00,487.000000,,2013-08-10 01:52:00,
2013-08-09 19:21:00,84.0,36.0,-100.00,NW,314,14.0,26.0,18,0.00,,,0.00,262.000000,,2013-08-10 02:21:00,
2013-08-09 19:32:00,84.0,36.0,-100.00,NW,314,14.0,26.0,18,0.00,,,0.00,262.000000,,2013-08-10 02:32:00,
2013-08-09 19:42:00,84.0,36.0,-100.00,NW,314,14.0,26.0,18,0.00,,,0.00,262.000000,,2013-08-10 02:42:00,
2013-08-09 19:52:00,84.0,36.0,-100.00,NW,314,14.0,26.0,18,0.00,,,0.00,262.000000,,2013-08-10 02:52:00,
2013-08-09 20:21:00,78.0,37.0,-100.00,WNW,298,8.0,24.0,23,0.00,,,0.00,36.000000,,2013-08-10 03:21:00,
2013-08-09 20:32:00,78.0,37.0,-100.00,WNW,298,8.0,24.0,23,0.00,,,0.00,36.000000,,2013-08-10 03:32:00,
2013-08-09 20:42:00,78.0,37.0,-100.00,WNW,298,8.0,24.0,23,0.00,,,0.00,36.000000,,2013-08-10 03:42:00,
2013-08-09 20:51:00,78.0,37.0,-100.00,WNW,298,8.0,24.0,23,0.00,,,0.00,36.000000,,2013-08-10 03:51:00,
2013-08-09 21:22:00,75.0,41.0,-100.00,South,191,3.0,18.0,30,0.00,,,0.00,0.000000,,2013-08-10 04:22:00,
2013-08-09 21:32:00,75.0,41.0,-100.00,South,191,3.0,18.0,30,0.00,,,0.00,0.000000,,2013-08-10 04:32:00,
2013-08-09 21:42:00,75.0,41.0,-100.00,South,191,3.0,18.0,30,0.00,,,0.00,0.000000,,2013-08-10 04:42:00,
2013-08-09 21:53:00,75.0,41.0,-100.00,South,191,3.0,18.0,30,0.00,,,0.00,0.000000,,2013-08-10 04:53:00,
2013-08-09 22:42:00,74.0,46.0,-100.00,SSE,167,5.0,9.0,37,0.00,,,0.00,0.000000,,2013-08-10 05:42:00,
2013-08-09 22:52:00,74.0,46.0,-100.00,SSE,167,5.0,9.0,37,0.00,,,0.00,0.000000,,2013-08-10 05:52:00,
2013-08-09 23:44:00,70.0,44.0,-100.00,SE,132,0.0,10.0,39,0.00,,,0.00,0.000000,,2013-08-10 06:44:00,
2013-08-09 23:52:00,70.0,44.0,-100.00,SE,132,0.0,10.0,39,0.00,,,0.00,0.000000,,2013-08-10 06:52:00,